Sheregesh, Russia
Current Conditions -  °F | °C
As of 11:00 PM on Thursday 30 Oct 2014 (Local Time) from UNAA Reporting Station
Clear Clear  
Wind Chill: 22°   Ceiling: Unl
Heat Index: 32°   Visibility: 6mi
Dew Point: 23°   Wind: 13mph
Humidity: 69%   Direction: 220°SW
Pressure: 30.18"   Gusts: NA
Location:  52.95°N, 88.03°E
Report Text: UNAA 301600Z 22006MPS CAVOK M00/M05 Q1022 NOSIG RMK QFE74420190055
Loading
Personal Weather Stations






























Interactive Weather Map
Tropical Storm Tracking
New forecast layout! Learn more

10-Day Weather Forecast

Advertisements
Track Severe Weather on mobile